sensor_id;sensor_type;location;lat;lon;timestamp;temperature;humidity
52125;DHT22;38119;52.710;6.398;2024-01-15T00:02:17;1.70;99.90
52125;DHT22;38119;52.710;6.398;2024-01-15T00:04:42;1.70;99.90
52125;DHT22;38119;52.710;6.398;2024-01-15T00:07:08;1.70;99.90
52125;DHT22;38119;52.710;6.398;2024-01-15T00:09:34;1.70;99.90
52125;DHT22;38119;52.710;6.398;2024-01-15T00:12:01;1.70;99.90
52125;DHT22;38119;52.710;6.398;2024-01-15T00:14:27;1.70;99.90
52125;DHT22;38119;52.710;6.398;2024-01-15T00:16:53;1.70;99.90
52125;DHT22;38119;52.710;6.398;2024-01-15T00:19:21;1.70;99.90
52125;DHT22;38119;52.710;6.398;2024-01-15T00:21:47;1.80;99.90
52125;DHT22;38119;52.710;6.398;2024-01-15T00:24:13;1.80;99.90
52125;DHT22;38119;52.710;6.398;2024-01-15T00:26:39;1.80;99.90
52125;DHT22;38119;52.710;6.398;2024-01-15T00:29:06;1.80;99.90
52125;DHT22;38119;52.710;6.398;2024-01-15T00:31:32;1.70;99.90
52125;DHT22;38119;52.710;6.398;2024-01-15T00:33:58;1.80;99.90
52125;DHT22;38119;52.710;6.398;2024-01-15T00:36:23;1.80;99.90
52125;DHT22;38119;52.710;6.398;2024-01-15T00:38:49;1.80;99.90
52125;DHT22;38119;52.710;6.398;2024-01-15T00:41:15;1.80;99.90
52125;DHT22;38119;52.710;6.398;2024-01-15T00:43:41;1.80;99.90
52125;DHT22;38119;52.710;6.398;2024-01-15T00:46:06;1.80;99.90
52125;DHT22;38119;52.710;6.398;2024-01-15T00:48:32;1.90;99.90
52125;DHT22;38119;52.710;6.398;2024-01-15T00:50:58;1.90;99.90
52125;DHT22;38119;52.710;6.398;2024-01-15T00:53:24;1.90;99.90
52125;DHT22;38119;52.710;6.398;2024-01-15T00:55:49;1.90;99.90
52125;DHT22;38119;52.710;6.398;2024-01-15T00:58:15;1.90;99.90
52125;DHT22;38119;52.710;6.398;2024-01-15T01:00:41;1.90;99.90
52125;DHT22;38119;52.710;6.398;2024-01-15T01:03:07;1.90;99.90
52125;DHT22;38119;52.710;6.398;2024-01-15T01:05:34;1.90;99.90
52125;DHT22;38119;52.710;6.398;2024-01-15T01:07:59;1.80;99.90
52125;DHT22;38119;52.710;6.398;2024-01-15T01:10:25;1.80;99.90
52125;DHT22;38119;52.710;6.398;2024-01-15T01:12:50;1.80;99.90
52125;DHT22;38119;52.710;6.398;2024-01-15T01:15:16;1.80;99.90
52125;DHT22;38119;52.710;6.398;2024-01-15T01:17:42;1.80;99.90
52125;DHT22;38119;52.710;6.398;2024-01-15T01:20:08;1.80;99.90
52125;DHT22;38119;52.710;6.398;2024-01-15T01:22:34;1.80;99.90
52125;DHT22;38119;52.710;6.398;2024-01-15T01:25:00;1.70;99.90
52125;DHT22;38119;52.710;6.398;2024-01-15T01:27:26;1.70;99.90
52125;DHT22;38119;52.710;6.398;2024-01-15T01:29:51;1.70;99.90
52125;DHT22;38119;52.710;6.398;2024-01-15T01:32:17;1.70;99.90
52125;DHT22;38119;52.710;6.398;2024-01-15T01:34:43;1.80;99.90
52125;DHT22;38119;52.710;6.398;2024-01-15T01:37:12;1.80;99.90
52125;DHT22;38119;52.710;6.398;2024-01-15T01:39:44;1.80;99.90
52125;DHT22;38119;52.710;6.398;2024-01-15T01:42:10;1.90;99.90
52125;DHT22;38119;52.710;6.398;2024-01-15T01:44:36;1.90;99.90
52125;DHT22;38119;52.710;6.398;2024-01-15T01:47:02;2.00;99.90
52125;DHT22;38119;52.710;6.398;2024-01-15T01:49:29;2.10;99.90
52125;DHT22;38119;52.710;6.398;2024-01-15T01:51:57;2.10;99.90
52125;DHT22;38119;52.710;6.398;2024-01-15T01:54:24;2.10;99.90
52125;DHT22;38119;52.710;6.398;2024-01-15T01:56:51;2.10;99.90
52125;DHT22;38119;52.710;6.398;2024-01-15T01:59:17;2.20;99.90
52125;DHT22;38119;52.710;6.398;2024-01-15T02:01:43;2.20;99.90
52125;DHT22;38119;52.710;6.398;2024-01-15T02:04:11;2.20;99.90
52125;DHT22;38119;52.710;6.398;2024-01-15T02:06:36;2.20;99.90
52125;DHT22;38119;52.710;6.398;2024-01-15T02:09:03;2.20;99.90
52125;DHT22;38119;52.710;6.398;2024-01-15T02:11:28;2.20;99.90
52125;DHT22;38119;52.710;6.398;2024-01-15T02:13:54;2.20;99.90
52125;DHT22;38119;52.710;6.398;2024-01-15T02:16:20;2.20;99.90
52125;DHT22;38119;52.710;6.398;2024-01-15T02:18:46;2.20;99.90
52125;DHT22;38119;52.710;6.398;2024-01-15T02:21:12;2.20;99.90
52125;DHT22;38119;52.710;6.398;2024-01-15T02:23:38;2.20;99.90
52125;DHT22;38119;52.710;6.398;2024-01-15T02:26:07;2.20;99.90
52125;DHT22;38119;52.710;6.398;2024-01-15T02:28:33;2.20;99.90
52125;DHT22;38119;52.710;6.398;2024-01-15T02:30:59;2.20;99.90
52125;DHT22;38119;52.710;6.398;2024-01-15T02:33:25;2.10;99.90
52125;DHT22;38119;52.710;6.398;2024-01-15T02:35:50;2.10;99.90
52125;DHT22;38119;52.710;6.398;2024-01-15T02:38:16;2.00;99.90
52125;DHT22;38119;52.710;6.398;2024-01-15T02:40:44;2.00;99.90
52125;DHT22;38119;52.710;6.398;2024-01-15T02:43:09;2.00;99.90
52125;DHT22;38119;52.710;6.398;2024-01-15T02:45:35;2.00;99.90
52125;DHT22;38119;52.710;6.398;2024-01-15T02:48:01;1.90;99.90
52125;DHT22;38119;52.710;6.398;2024-01-15T02:50:26;1.90;99.90
52125;DHT22;38119;52.710;6.398;2024-01-15T02:52:52;1.90;99.90
52125;DHT22;38119;52.710;6.398;2024-01-15T02:55:18;1.80;99.90
52125;DHT22;38119;52.710;6.398;2024-01-15T02:57:44;1.90;99.90
52125;DHT22;38119;52.710;6.398;2024-01-15T03:00:09;1.80;99.90
52125;DHT22;38119;52.710;6.398;2024-01-15T03:02:37;1.80;99.90
52125;DHT22;38119;52.710;6.398;2024-01-15T03:05:06;1.80;99.90
52125;DHT22;38119;52.710;6.398;2024-01-15T03:07:33;1.80;99.90
52125;DHT22;38119;52.710;6.398;2024-01-15T03:09:59;1.80;99.90
52125;DHT22;38119;52.710;6.398;2024-01-15T03:12:24;1.80;99.90
52125;DHT22;38119;52.710;6.398;2024-01-15T03:14:50;1.80;99.90
52125;DHT22;38119;52.710;6.398;2024-01-15T03:17:15;1.80;99.90
52125;DHT22;38119;52.710;6.398;2024-01-15T03:19:41;1.80;99.90
52125;DHT22;38119;52.710;6.398;2024-01-15T03:22:07;1.80;99.90
52125;DHT22;38119;52.710;6.398;2024-01-15T03:24:34;1.80;99.90
52125;DHT22;38119;52.710;6.398;2024-01-15T03:27:00;1.90;99.90
52125;DHT22;38119;52.710;6.398;2024-01-15T03:29:26;1.90;99.90
52125;DHT22;38119;52.710;6.398;2024-01-15T03:31:52;1.90;99.90
52125;DHT22;38119;52.710;6.398;2024-01-15T03:34:18;1.90;99.90
52125;DHT22;38119;52.710;6.398;2024-01-15T03:36:43;1.90;99.90
52125;DHT22;38119;52.710;6.398;2024-01-15T03:39:09;1.90;99.90
52125;DHT22;38119;52.710;6.398;2024-01-15T03:41:35;1.90;99.90
52125;DHT22;38119;52.710;6.398;2024-01-15T03:44:00;1.90;99.90
52125;DHT22;38119;52.710;6.398;2024-01-15T03:46:26;1.90;99.90
52125;DHT22;38119;52.710;6.398;2024-01-15T03:48:52;1.90;99.90
52125;DHT22;38119;52.710;6.398;2024-01-15T03:51:18;1.90;99.90
52125;DHT22;38119;52.710;6.398;2024-01-15T03:53:44;2.00;99.90
52125;DHT22;38119;52.710;6.398;2024-01-15T03:56:09;2.00;99.90
52125;DHT22;38119;52.710;6.398;2024-01-15T03:58:35;2.00;99.90
52125;DHT22;38119;52.710;6.398;2024-01-15T04:01:00;2.00;99.90
52125;DHT22;38119;52.710;6.398;2024-01-15T04:03:26;2.00;99.90
52125;DHT22;38119;52.710;6.398;2024-01-15T04:05:52;2.00;99.90
52125;DHT22;38119;52.710;6.398;2024-01-15T04:08:17;2.00;99.90
52125;DHT22;38119;52.710;6.398;2024-01-15T04:10:43;2.00;99.90
52125;DHT22;38119;52.710;6.398;2024-01-15T04:13:08;2.00;99.90
52125;DHT22;38119;52.710;6.398;2024-01-15T04:15:34;2.00;99.90
52125;DHT22;38119;52.710;6.398;2024-01-15T04:18:01;2.00;99.90
52125;DHT22;38119;52.710;6.398;2024-01-15T04:20:27;2.00;99.90
52125;DHT22;38119;52.710;6.398;2024-01-15T04:22:53;2.00;99.90
52125;DHT22;38119;52.710;6.398;2024-01-15T04:25:18;2.00;99.90
52125;DHT22;38119;52.710;6.398;2024-01-15T04:27:44;2.00;99.90
52125;DHT22;38119;52.710;6.398;2024-01-15T04:30:10;2.00;99.90
52125;DHT22;38119;52.710;6.398;2024-01-15T04:32:35;2.00;99.90
52125;DHT22;38119;52.710;6.398;2024-01-15T04:35:01;2.00;99.90
52125;DHT22;38119;52.710;6.398;2024-01-15T04:37:27;2.00;99.90
52125;DHT22;38119;52.710;6.398;2024-01-15T04:39:52;2.00;99.90
52125;DHT22;38119;52.710;6.398;2024-01-15T04:42:20;2.00;99.90
52125;DHT22;38119;52.710;6.398;2024-01-15T04:44:46;2.00;99.90
52125;DHT22;38119;52.710;6.398;2024-01-15T04:47:12;2.00;99.90
52125;DHT22;38119;52.710;6.398;2024-01-15T04:49:38;2.00;99.90
52125;DHT22;38119;52.710;6.398;2024-01-15T04:52:03;2.00;99.90
52125;DHT22;38119;52.710;6.398;2024-01-15T04:54:29;2.00;99.90
52125;DHT22;38119;52.710;6.398;2024-01-15T04:56:55;2.00;99.90
52125;DHT22;38119;52.710;6.398;2024-01-15T04:59:20;2.00;99.90
52125;DHT22;38119;52.710;6.398;2024-01-15T05:01:46;2.00;99.90
52125;DHT22;38119;52.710;6.398;2024-01-15T05:04:12;2.00;99.90
52125;DHT22;38119;52.710;6.398;2024-01-15T05:06:38;1.90;99.90
52125;DHT22;38119;52.710;6.398;2024-01-15T05:09:04;1.90;99.90
52125;DHT22;38119;52.710;6.398;2024-01-15T05:11:29;1.90;99.90
52125;DHT22;38119;52.710;6.398;2024-01-15T05:13:55;1.80;99.90
52125;DHT22;38119;52.710;6.398;2024-01-15T05:16:21;1.80;99.90
52125;DHT22;38119;52.710;6.398;2024-01-15T05:18:46;1.80;99.90
52125;DHT22;38119;52.710;6.398;2024-01-15T05:21:12;1.70;99.90
52125;DHT22;38119;52.710;6.398;2024-01-15T05:23:38;1.70;99.90
52125;DHT22;38119;52.710;6.398;2024-01-15T05:26:04;1.60;99.90
52125;DHT22;38119;52.710;6.398;2024-01-15T05:28:29;1.60;99.90
52125;DHT22;38119;52.710;6.398;2024-01-15T05:30:55;1.60;99.90
52125;DHT22;38119;52.710;6.398;2024-01-15T05:33:22;1.50;99.90
52125;DHT22;38119;52.710;6.398;2024-01-15T05:35:48;1.50;99.90
52125;DHT22;38119;52.710;6.398;2024-01-15T05:38:16;1.50;99.90
52125;DHT22;38119;52.710;6.398;2024-01-15T05:40:41;1.50;99.90
52125;DHT22;38119;52.710;6.398;2024-01-15T05:43:07;1.50;99.90
52125;DHT22;38119;52.710;6.398;2024-01-15T05:45:34;1.50;99.90
52125;DHT22;38119;52.710;6.398;2024-01-15T05:48:00;1.50;99.90
52125;DHT22;38119;52.710;6.398;2024-01-15T05:50:25;1.40;99.90
52125;DHT22;38119;52.710;6.398;2024-01-15T05:52:51;1.50;99.90
52125;DHT22;38119;52.710;6.398;2024-01-15T05:55:17;1.50;99.90
52125;DHT22;38119;52.710;6.398;2024-01-15T05:57:44;1.50;99.90
52125;DHT22;38119;52.710;6.398;2024-01-15T06:00:10;1.50;99.90
52125;DHT22;38119;52.710;6.398;2024-01-15T06:02:37;1.50;99.90
52125;DHT22;38119;52.710;6.398;2024-01-15T06:05:04;1.50;99.90
52125;DHT22;38119;52.710;6.398;2024-01-15T06:07:29;1.50;99.90
52125;DHT22;38119;52.710;6.398;2024-01-15T06:09:55;1.40;99.90
52125;DHT22;38119;52.710;6.398;2024-01-15T06:12:22;1.40;99.90
52125;DHT22;38119;52.710;6.398;2024-01-15T06:14:48;1.40;99.90
52125;DHT22;38119;52.710;6.398;2024-01-15T06:17:13;1.40;99.90
52125;DHT22;38119;52.710;6.398;2024-01-15T06:19:39;1.40;99.90
52125;DHT22;38119;52.710;6.398;2024-01-15T06:22:05;1.40;99.90
52125;DHT22;38119;52.710;6.398;2024-01-15T06:24:30;1.40;99.90
52125;DHT22;38119;52.710;6.398;2024-01-15T06:26:56;1.40;99.90
52125;DHT22;38119;52.710;6.398;2024-01-15T06:29:21;1.50;99.90
52125;DHT22;38119;52.710;6.398;2024-01-15T06:31:47;1.50;99.90
52125;DHT22;38119;52.710;6.398;2024-01-15T06:34:13;1.50;99.90
52125;DHT22;38119;52.710;6.398;2024-01-15T06:36:38;1.60;99.90
52125;DHT22;38119;52.710;6.398;2024-01-15T06:39:04;1.50;99.90
52125;DHT22;38119;52.710;6.398;2024-01-15T06:41:30;1.50;99.90
52125;DHT22;38119;52.710;6.398;2024-01-15T06:43:56;1.60;99.90
52125;DHT22;38119;52.710;6.398;2024-01-15T06:46:22;1.50;99.90
52125;DHT22;38119;52.710;6.398;2024-01-15T06:48:48;1.50;99.90
52125;DHT22;38119;52.710;6.398;2024-01-15T06:51:15;1.50;99.90
52125;DHT22;38119;52.710;6.398;2024-01-15T06:53:40;1.40;99.90
52125;DHT22;38119;52.710;6.398;2024-01-15T06:56:06;1.40;99.90
52125;DHT22;38119;52.710;6.398;2024-01-15T06:58:31;1.40;99.90
52125;DHT22;38119;52.710;6.398;2024-01-15T07:00:57;1.40;99.90
52125;DHT22;38119;52.710;6.398;2024-01-15T07:03:23;1.40;99.90
52125;DHT22;38119;52.710;6.398;2024-01-15T07:05:49;1.40;99.90
52125;DHT22;38119;52.710;6.398;2024-01-15T07:08:14;1.40;99.90
52125;DHT22;38119;52.710;6.398;2024-01-15T07:10:40;1.40;99.90
52125;DHT22;38119;52.710;6.398;2024-01-15T07:13:05;1.40;99.90
52125;DHT22;38119;52.710;6.398;2024-01-15T07:15:31;1.40;99.90
52125;DHT22;38119;52.710;6.398;2024-01-15T07:17:57;1.40;99.90
52125;DHT22;38119;52.710;6.398;2024-01-15T07:20:22;1.50;99.90
52125;DHT22;38119;52.710;6.398;2024-01-15T07:22:48;1.40;99.90
52125;DHT22;38119;52.710;6.398;2024-01-15T07:25:13;1.40;99.90
52125;DHT22;38119;52.710;6.398;2024-01-15T07:27:41;1.40;99.90
52125;DHT22;38119;52.710;6.398;2024-01-15T07:30:10;1.40;99.90
52125;DHT22;38119;52.710;6.398;2024-01-15T07:32:37;1.40;99.90
52125;DHT22;38119;52.710;6.398;2024-01-15T07:35:03;1.40;99.90
52125;DHT22;38119;52.710;6.398;2024-01-15T07:37:28;1.40;99.90
52125;DHT22;38119;52.710;6.398;2024-01-15T07:39:54;1.40;99.90
52125;DHT22;38119;52.710;6.398;2024-01-15T07:42:20;1.40;99.90
52125;DHT22;38119;52.710;6.398;2024-01-15T07:44:45;1.40;99.90
52125;DHT22;38119;52.710;6.398;2024-01-15T07:47:11;1.40;99.90
52125;DHT22;38119;52.710;6.398;2024-01-15T07:49:37;1.30;99.90
52125;DHT22;38119;52.710;6.398;2024-01-15T07:52:02;1.40;99.90
52125;DHT22;38119;52.710;6.398;2024-01-15T07:54:30;1.40;99.90
52125;DHT22;38119;52.710;6.398;2024-01-15T07:56:59;1.40;99.90
52125;DHT22;38119;52.710;6.398;2024-01-15T07:59:26;1.30;99.90
52125;DHT22;38119;52.710;6.398;2024-01-15T08:01:52;1.30;99.90
52125;DHT22;38119;52.710;6.398;2024-01-15T08:04:18;1.30;99.90
52125;DHT22;38119;52.710;6.398;2024-01-15T08:06:44;1.30;99.90
52125;DHT22;38119;52.710;6.398;2024-01-15T08:09:10;1.30;99.90
52125;DHT22;38119;52.710;6.398;2024-01-15T08:11:38;1.30;99.90
52125;DHT22;38119;52.710;6.398;2024-01-15T08:14:04;1.20;99.90
52125;DHT22;38119;52.710;6.398;2024-01-15T08:16:30;1.30;99.90
52125;DHT22;38119;52.710;6.398;2024-01-15T08:18:55;1.30;99.90
52125;DHT22;38119;52.710;6.398;2024-01-15T08:21:21;1.20;99.90
52125;DHT22;38119;52.710;6.398;2024-01-15T08:23:47;1.30;99.90
52125;DHT22;38119;52.710;6.398;2024-01-15T08:26:13;1.30;99.90
52125;DHT22;38119;52.710;6.398;2024-01-15T08:28:38;1.30;99.90
52125;DHT22;38119;52.710;6.398;2024-01-15T08:31:04;1.30;99.90
52125;DHT22;38119;52.710;6.398;2024-01-15T08:33:30;1.30;99.90
52125;DHT22;38119;52.710;6.398;2024-01-15T08:35:55;1.40;99.90
52125;DHT22;38119;52.710;6.398;2024-01-15T08:38:21;1.40;99.90
52125;DHT22;38119;52.710;6.398;2024-01-15T08:40:47;1.40;99.90
52125;DHT22;38119;52.710;6.398;2024-01-15T08:43:13;1.50;99.90
52125;DHT22;38119;52.710;6.398;2024-01-15T08:45:39;1.50;99.90
52125;DHT22;38119;52.710;6.398;2024-01-15T08:48:04;1.50;99.90
52125;DHT22;38119;52.710;6.398;2024-01-15T08:50:32;1.50;99.90
52125;DHT22;38119;52.710;6.398;2024-01-15T08:52:58;1.50;99.90
52125;DHT22;38119;52.710;6.398;2024-01-15T08:55:23;1.60;99.90
52125;DHT22;38119;52.710;6.398;2024-01-15T08:57:49;1.60;99.90
52125;DHT22;38119;52.710;6.398;2024-01-15T09:00:15;1.60;99.90
52125;DHT22;38119;52.710;6.398;2024-01-15T09:02:42;1.60;99.90
52125;DHT22;38119;52.710;6.398;2024-01-15T09:05:08;1.60;99.90
52125;DHT22;38119;52.710;6.398;2024-01-15T09:07:33;1.50;99.90
52125;DHT22;38119;52.710;6.398;2024-01-15T09:09:59;1.50;99.90
52125;DHT22;38119;52.710;6.398;2024-01-15T09:12:25;1.50;99.90
52125;DHT22;38119;52.710;6.398;2024-01-15T09:14:51;1.50;99.90
52125;DHT22;38119;52.710;6.398;2024-01-15T09:17:17;1.50;99.90
52125;DHT22;38119;52.710;6.398;2024-01-15T09:19:43;1.50;99.90
52125;DHT22;38119;52.710;6.398;2024-01-15T09:22:09;1.50;99.90
52125;DHT22;38119;52.710;6.398;2024-01-15T09:24:35;1.50;99.90
52125;DHT22;38119;52.710;6.398;2024-01-15T09:27:01;1.50;99.90
52125;DHT22;38119;52.710;6.398;2024-01-15T09:29:27;1.50;99.90
52125;DHT22;38119;52.710;6.398;2024-01-15T09:31:53;1.50;99.90
52125;DHT22;38119;52.710;6.398;2024-01-15T09:34:19;1.50;99.90
52125;DHT22;38119;52.710;6.398;2024-01-15T09:36:44;1.60;99.90
52125;DHT22;38119;52.710;6.398;2024-01-15T09:39:10;1.60;99.90
52125;DHT22;38119;52.710;6.398;2024-01-15T09:41:39;1.70;99.90
52125;DHT22;38119;52.710;6.398;2024-01-15T09:44:05;1.80;99.90
52125;DHT22;38119;52.710;6.398;2024-01-15T09:46:33;1.80;99.90
52125;DHT22;38119;52.710;6.398;2024-01-15T09:48:59;1.80;99.90
52125;DHT22;38119;52.710;6.398;2024-01-15T09:51:25;1.90;99.90
52125;DHT22;38119;52.710;6.398;2024-01-15T09:53:51;1.80;99.90
52125;DHT22;38119;52.710;6.398;2024-01-15T09:56:18;1.80;99.90
52125;DHT22;38119;52.710;6.398;2024-01-15T09:58:44;1.80;99.90
52125;DHT22;38119;52.710;6.398;2024-01-15T10:01:11;1.80;99.90
52125;DHT22;38119;52.710;6.398;2024-01-15T10:03:37;1.70;99.90
52125;DHT22;38119;52.710;6.398;2024-01-15T10:06:04;1.70;99.90
52125;DHT22;38119;52.710;6.398;2024-01-15T10:08:32;1.60;99.90
52125;DHT22;38119;52.710;6.398;2024-01-15T10:10:58;1.60;99.90
52125;DHT22;38119;52.710;6.398;2024-01-15T10:13:23;1.60;99.90
52125;DHT22;38119;52.710;6.398;2024-01-15T10:15:49;1.60;99.90
52125;DHT22;38119;52.710;6.398;2024-01-15T10:18:15;1.60;99.90
52125;DHT22;38119;52.710;6.398;2024-01-15T10:20:41;1.70;99.90
52125;DHT22;38119;52.710;6.398;2024-01-15T10:23:08;1.80;99.90
52125;DHT22;38119;52.710;6.398;2024-01-15T10:25:35;1.80;99.90
52125;DHT22;38119;52.710;6.398;2024-01-15T10:28:03;1.70;99.90
52125;DHT22;38119;52.710;6.398;2024-01-15T10:30:30;1.80;99.90
52125;DHT22;38119;52.710;6.398;2024-01-15T10:33:03;1.80;99.90
52125;DHT22;38119;52.710;6.398;2024-01-15T10:35:33;1.90;99.90
52125;DHT22;38119;52.710;6.398;2024-01-15T10:38:00;1.90;99.90
52125;DHT22;38119;52.710;6.398;2024-01-15T10:40:26;2.00;99.90
52125;DHT22;38119;52.710;6.398;2024-01-15T10:42:51;2.00;99.90
52125;DHT22;38119;52.710;6.398;2024-01-15T10:45:17;2.00;99.90
52125;DHT22;38119;52.710;6.398;2024-01-15T10:47:43;2.10;99.90
52125;DHT22;38119;52.710;6.398;2024-01-15T10:50:10;2.20;99.90
52125;DHT22;38119;52.710;6.398;2024-01-15T10:52:39;2.30;99.90
52125;DHT22;38119;52.710;6.398;2024-01-15T10:55:07;2.40;99.90
52125;DHT22;38119;52.710;6.398;2024-01-15T10:57:35;2.40;99.90
52125;DHT22;38119;52.710;6.398;2024-01-15T11:00:01;2.50;99.90
52125;DHT22;38119;52.710;6.398;2024-01-15T11:02:32;2.60;99.90
52125;DHT22;38119;52.710;6.398;2024-01-15T11:04:59;2.60;99.90
52125;DHT22;38119;52.710;6.398;2024-01-15T11:07:24;2.70;99.90
52125;DHT22;38119;52.710;6.398;2024-01-15T11:09:51;2.60;99.90
52125;DHT22;38119;52.710;6.398;2024-01-15T11:12:17;2.60;99.90
52125;DHT22;38119;52.710;6.398;2024-01-15T11:14:47;2.40;99.90
52125;DHT22;38119;52.710;6.398;2024-01-15T11:17:13;2.30;99.90
52125;DHT22;38119;52.710;6.398;2024-01-15T11:22:10;2.10;99.90
52125;DHT22;38119;52.710;6.398;2024-01-15T11:24:41;2.00;99.90
52125;DHT22;38119;52.710;6.398;2024-01-15T11:27:07;2.00;99.90
52125;DHT22;38119;52.710;6.398;2024-01-15T11:29:37;1.90;99.90
52125;DHT22;38119;52.710;6.398;2024-01-15T11:34:52;1.90;99.90
52125;DHT22;38119;52.710;6.398;2024-01-15T11:37:19;2.00;99.90
52125;DHT22;38119;52.710;6.398;2024-01-15T11:39:45;2.00;99.90
52125;DHT22;38119;52.710;6.398;2024-01-15T11:42:12;2.00;99.90
52125;DHT22;38119;52.710;6.398;2024-01-15T11:44:39;2.00;99.90
52125;DHT22;38119;52.710;6.398;2024-01-15T11:47:14;2.10;99.90
52125;DHT22;38119;52.710;6.398;2024-01-15T11:50:02;2.10;99.90
52125;DHT22;38119;52.710;6.398;2024-01-15T11:52:36;2.20;99.90
52125;DHT22;38119;52.710;6.398;2024-01-15T11:55:12;2.20;99.90
52125;DHT22;38119;52.710;6.398;2024-01-15T11:57:41;2.20;99.90
52125;DHT22;38119;52.710;6.398;2024-01-15T12:00:11;2.30;99.90
52125;DHT22;38119;52.710;6.398;2024-01-15T12:02:41;2.30;99.90
52125;DHT22;38119;52.710;6.398;2024-01-15T12:05:08;2.30;99.90
52125;DHT22;38119;52.710;6.398;2024-01-15T12:07:34;2.30;99.90
52125;DHT22;38119;52.710;6.398;2024-01-15T12:10:01;2.30;99.90
52125;DHT22;38119;52.710;6.398;2024-01-15T12:15:19;2.40;99.90
52125;DHT22;38119;52.710;6.398;2024-01-15T12:17:45;2.40;99.90
52125;DHT22;38119;52.710;6.398;2024-01-15T12:20:11;2.50;99.90
52125;DHT22;38119;52.710;6.398;2024-01-15T12:22:38;2.40;99.90
52125;DHT22;38119;52.710;6.398;2024-01-15T12:25:03;2.50;99.90
52125;DHT22;38119;52.710;6.398;2024-01-15T12:27:30;2.40;99.90
52125;DHT22;38119;52.710;6.398;2024-01-15T12:29:55;2.40;99.90
52125;DHT22;38119;52.710;6.398;2024-01-15T12:32:24;2.30;99.90
52125;DHT22;38119;52.710;6.398;2024-01-15T12:34:50;2.20;99.90
52125;DHT22;38119;52.710;6.398;2024-01-15T12:37:18;2.20;99.90
52125;DHT22;38119;52.710;6.398;2024-01-15T12:39:44;2.20;99.90
52125;DHT22;38119;52.710;6.398;2024-01-15T12:42:10;2.10;99.90
52125;DHT22;38119;52.710;6.398;2024-01-15T12:44:36;2.10;99.90
52125;DHT22;38119;52.710;6.398;2024-01-15T12:47:05;2.00;99.90
52125;DHT22;38119;52.710;6.398;2024-01-15T12:49:31;2.00;99.90
52125;DHT22;38119;52.710;6.398;2024-01-15T12:51:59;2.00;99.90
52125;DHT22;38119;52.710;6.398;2024-01-15T12:54:25;2.00;99.90
52125;DHT22;38119;52.710;6.398;2024-01-15T12:56:51;2.00;99.90
52125;DHT22;38119;52.710;6.398;2024-01-15T12:59:18;2.10;99.90
52125;DHT22;38119;52.710;6.398;2024-01-15T13:01:44;2.20;99.90
52125;DHT22;38119;52.710;6.398;2024-01-15T13:04:10;2.40;99.90
52125;DHT22;38119;52.710;6.398;2024-01-15T13:06:36;2.40;99.90
52125;DHT22;38119;52.710;6.398;2024-01-15T13:09:03;2.40;99.90
52125;DHT22;38119;52.710;6.398;2024-01-15T13:11:31;2.40;99.90
52125;DHT22;38119;52.710;6.398;2024-01-15T13:13:57;2.40;99.90
52125;DHT22;38119;52.710;6.398;2024-01-15T13:16:22;2.70;99.90
52125;DHT22;38119;52.710;6.398;2024-01-15T13:18:48;2.70;99.90
52125;DHT22;38119;52.710;6.398;2024-01-15T13:21:15;2.60;99.90
52125;DHT22;38119;52.710;6.398;2024-01-15T13:23:41;2.80;99.90
52125;DHT22;38119;52.710;6.398;2024-01-15T13:26:06;3.20;99.90
52125;DHT22;38119;52.710;6.398;2024-01-15T13:28:32;3.60;99.90
52125;DHT22;38119;52.710;6.398;2024-01-15T13:30:58;3.90;99.90
52125;DHT22;38119;52.710;6.398;2024-01-15T13:33:23;3.80;99.90
52125;DHT22;38119;52.710;6.398;2024-01-15T13:35:49;3.60;99.90
52125;DHT22;38119;52.710;6.398;2024-01-15T13:38:16;3.40;99.90
52125;DHT22;38119;52.710;6.398;2024-01-15T13:40:41;3.20;99.90
52125;DHT22;38119;52.710;6.398;2024-01-15T13:43:07;3.50;99.90
52125;DHT22;38119;52.710;6.398;2024-01-15T13:45:36;4.00;99.90
52125;DHT22;38119;52.710;6.398;2024-01-15T13:48:03;4.10;99.90
52125;DHT22;38119;52.710;6.398;2024-01-15T13:50:31;3.50;99.90
52125;DHT22;38119;52.710;6.398;2024-01-15T13:52:57;3.40;99.90
52125;DHT22;38119;52.710;6.398;2024-01-15T13:55:22;3.20;99.90
52125;DHT22;38119;52.710;6.398;2024-01-15T13:57:48;3.00;99.90
52125;DHT22;38119;52.710;6.398;2024-01-15T14:00:14;2.80;99.90
52125;DHT22;38119;52.710;6.398;2024-01-15T14:02:44;2.80;99.90
52125;DHT22;38119;52.710;6.398;2024-01-15T14:05:10;3.10;99.90
52125;DHT22;38119;52.710;6.398;2024-01-15T14:07:38;3.50;99.90
52125;DHT22;38119;52.710;6.398;2024-01-15T14:10:05;3.50;99.90
52125;DHT22;38119;52.710;6.398;2024-01-15T14:12:33;3.50;99.90
52125;DHT22;38119;52.710;6.398;2024-01-15T14:15:00;3.90;99.90
52125;DHT22;38119;52.710;6.398;2024-01-15T14:17:27;4.40;99.90
52125;DHT22;38119;52.710;6.398;2024-01-15T14:19:52;4.70;99.90
52125;DHT22;38119;52.710;6.398;2024-01-15T14:22:18;4.80;99.90
52125;DHT22;38119;52.710;6.398;2024-01-15T14:24:43;4.70;99.90
52125;DHT22;38119;52.710;6.398;2024-01-15T14:27:09;4.60;99.90
52125;DHT22;38119;52.710;6.398;2024-01-15T14:29:35;4.40;99.90
52125;DHT22;38119;52.710;6.398;2024-01-15T14:32:01;4.10;99.90
52125;DHT22;38119;52.710;6.398;2024-01-15T14:34:27;3.80;99.90
52125;DHT22;38119;52.710;6.398;2024-01-15T14:36:53;3.60;99.90
52125;DHT22;38119;52.710;6.398;2024-01-15T14:39:21;3.40;99.90
52125;DHT22;38119;52.710;6.398;2024-01-15T14:41:47;3.20;99.90
52125;DHT22;38119;52.710;6.398;2024-01-15T14:44:12;3.20;99.90
52125;DHT22;38119;52.710;6.398;2024-01-15T14:46:39;3.10;99.90
52125;DHT22;38119;52.710;6.398;2024-01-15T14:49:04;3.00;99.90
52125;DHT22;38119;52.710;6.398;2024-01-15T14:51:30;2.90;99.90
52125;DHT22;38119;52.710;6.398;2024-01-15T14:53:56;2.90;99.90
52125;DHT22;38119;52.710;6.398;2024-01-15T14:56:22;2.80;99.90
52125;DHT22;38119;52.710;6.398;2024-01-15T14:58:47;2.80;99.90
52125;DHT22;38119;52.710;6.398;2024-01-15T15:01:13;2.70;99.90
52125;DHT22;38119;52.710;6.398;2024-01-15T15:03:39;2.60;99.90
52125;DHT22;38119;52.710;6.398;2024-01-15T15:06:06;2.60;99.90
52125;DHT22;38119;52.710;6.398;2024-01-15T15:08:34;2.60;99.90
52125;DHT22;38119;52.710;6.398;2024-01-15T15:11:00;2.50;99.90
52125;DHT22;38119;52.710;6.398;2024-01-15T15:13:26;2.40;99.90
52125;DHT22;38119;52.710;6.398;2024-01-15T15:15:53;2.40;99.90
52125;DHT22;38119;52.710;6.398;2024-01-15T15:18:22;2.40;99.90
52125;DHT22;38119;52.710;6.398;2024-01-15T15:20:48;2.40;99.90
52125;DHT22;38119;52.710;6.398;2024-01-15T15:23:14;2.40;99.90
52125;DHT22;38119;52.710;6.398;2024-01-15T15:25:39;2.40;99.90
52125;DHT22;38119;52.710;6.398;2024-01-15T15:28:05;2.30;99.90
52125;DHT22;38119;52.710;6.398;2024-01-15T15:30:31;2.30;99.90
52125;DHT22;38119;52.710;6.398;2024-01-15T15:32:57;2.30;99.90
52125;DHT22;38119;52.710;6.398;2024-01-15T15:35:22;2.20;99.90
52125;DHT22;38119;52.710;6.398;2024-01-15T15:37:48;2.20;99.90
52125;DHT22;38119;52.710;6.398;2024-01-15T15:40:13;2.10;99.90
52125;DHT22;38119;52.710;6.398;2024-01-15T15:42:39;2.10;99.90
52125;DHT22;38119;52.710;6.398;2024-01-15T15:45:05;2.10;99.90
52125;DHT22;38119;52.710;6.398;2024-01-15T15:47:31;2.00;99.90